createdAt,value
2023-01-17T00:02:37.306Z,97200.00
2023-01-17T00:05:59.392Z,97199.72
2023-01-17T00:09:19.135Z,97194.06
2023-01-17T00:12:21.183Z,97210.66
2023-01-17T00:15:23.692Z,97202.97
2023-01-17T00:18:25.230Z,97208.56
2023-01-17T00:21:45.149Z,97205.34
2023-01-17T00:25:04.997Z,97199.09
2023-01-17T00:28:07.123Z,97207.59
2023-01-17T00:31:10.143Z,97206.22
2023-01-17T00:34:11.543Z,97207.94
2023-01-17T00:37:12.906Z,97208.63
2023-01-17T00:40:14.401Z,97207.03
2023-01-17T00:43:37.159Z,97213.34
2023-01-17T00:46:57.229Z,97211.84
2023-01-17T00:50:17.099Z,97206.47
2023-01-17T00:53:36.941Z,97195.91
2023-01-17T00:56:56.864Z,97200.00
2023-01-17T01:00:16.664Z,97191.59
2023-01-17T01:03:36.710Z,97187.81
2023-01-17T01:06:56.738Z,97192.63
2023-01-17T01:10:16.600Z,97199.53
2023-01-17T01:13:37.536Z,97197.91
2023-01-17T01:16:57.478Z,97196.84
2023-01-17T01:20:17.341Z,97207.59
2023-01-17T01:23:37.420Z,97202.19
2023-01-17T01:26:57.196Z,97201.59
2023-01-17T01:30:17.328Z,97216.09
2023-01-17T01:33:18.780Z,97216.91
2023-01-17T01:36:20.486Z,97220.28
2023-01-17T01:39:21.859Z,97218.31
2023-01-17T01:42:23.269Z,97216.34
2023-01-17T01:45:28.482Z,97213.56
2023-01-17T01:48:37.198Z,97227.59
2023-01-17T01:51:43.548Z,97226.28
2023-01-17T01:54:54.477Z,97222.13
2023-01-17T01:58:02.445Z,97224.94
2023-01-17T02:01:07.677Z,97226.19
2023-01-17T02:04:10.072Z,97216.41
2023-01-17T02:07:17.539Z,97213.84
2023-01-17T02:10:19.190Z,97212.09
2023-01-17T02:13:20.872Z,97209.34
2023-01-17T02:16:46.842Z,97211.69
2023-01-17T02:20:15.484Z,97222.13
2023-01-17T02:23:50.983Z,97216.03
2023-01-17T02:26:57.920Z,97212.94
2023-01-17T02:30:30.447Z,97211.59
2023-01-17T02:33:42.911Z,97205.41
2023-01-17T02:36:52.271Z,97208.63
2023-01-17T02:40:02.737Z,97206.41
2023-01-17T02:43:13.547Z,97207.53
2023-01-17T02:46:14.991Z,97209.59
2023-01-17T02:49:18.680Z,97208.78
2023-01-17T02:52:57.742Z,97214.50
2023-01-17T02:56:15.940Z,97213.53
2023-01-17T02:59:23.138Z,97212.06
2023-01-17T03:02:35.452Z,97208.34
2023-01-17T03:05:44.286Z,97210.38
2023-01-17T03:08:48.778Z,97205.31
2023-01-17T03:11:50.190Z,97195.91
2023-01-17T03:14:51.564Z,97189.34
2023-01-17T03:17:58.404Z,97184.09
2023-01-17T03:21:00.334Z,97172.00
2023-01-17T03:24:02.973Z,97172.91
2023-01-17T03:27:04.393Z,97173.38
2023-01-17T03:30:06.420Z,97158.31
2023-01-17T03:33:08.135Z,97166.13
2023-01-17T03:36:09.800Z,97162.22
2023-01-17T03:39:11.610Z,97157.16
2023-01-17T03:42:13.020Z,97156.66
2023-01-17T03:45:14.536Z,97164.44
2023-01-17T03:48:16.100Z,97169.41
2023-01-17T03:51:17.900Z,97180.38
2023-01-17T03:54:19.295Z,97186.19
2023-01-17T03:57:20.700Z,97190.66
2023-01-17T04:00:22.536Z,97181.63
2023-01-17T04:03:24.187Z,97182.72
2023-01-17T04:06:25.580Z,97182.03
2023-01-17T04:09:27.104Z,97183.38
2023-01-17T04:12:28.656Z,97165.88
2023-01-17T04:15:30.147Z,97170.63
2023-01-17T04:18:31.580Z,97171.94
2023-01-17T04:21:32.983Z,97167.41
2023-01-17T04:24:34.378Z,97175.22
2023-01-17T04:27:35.760Z,97171.84
2023-01-17T04:30:37.321Z,97171.47
2023-01-17T04:33:38.783Z,97173.16
2023-01-17T04:36:40.287Z,97166.44
2023-01-17T04:39:41.696Z,97168.78
2023-01-17T04:42:45.463Z,97162.97
2023-01-17T04:45:46.878Z,97165.91
2023-01-17T04:48:48.307Z,97166.28
2023-01-17T04:51:49.723Z,97152.91
2023-01-17T04:54:52.787Z,97145.19
2023-01-17T04:57:54.563Z,97145.56
2023-01-17T05:00:56.306Z,97137.81
2023-01-17T05:03:57.766Z,97127.84
2023-01-17T05:06:59.237Z,97136.53
2023-01-17T05:10:00.903Z,97128.09
2023-01-17T05:13:03.098Z,97114.56
2023-01-17T05:16:04.817Z,97108.31
2023-01-17T05:19:06.266Z,97100.22
2023-01-17T05:22:15.235Z,97099.25
2023-01-17T05:25:16.791Z,97085.84
2023-01-17T05:28:18.203Z,97082.41
2023-01-17T05:31:20.162Z,97089.81
2023-01-17T05:34:21.612Z,97087.84
2023-01-17T05:37:23.036Z,97084.25
2023-01-17T05:40:27.914Z,97067.09
2023-01-17T05:43:29.488Z,97062.38
2023-01-17T05:46:31.084Z,97069.09
2023-01-17T05:49:32.486Z,97068.78
2023-01-17T05:52:33.991Z,97062.06
2023-01-17T05:55:35.978Z,97053.75
2023-01-17T05:58:37.454Z,97042.34
2023-01-17T06:01:38.894Z,97036.88
2023-01-17T06:04:40.382Z,97030.47
2023-01-17T06:07:46.319Z,97026.75
2023-01-17T06:10:47.797Z,97009.50
2023-01-17T06:13:49.293Z,96998.13
2023-01-17T06:16:50.734Z,97004.91
2023-01-17T06:19:52.155Z,96999.84
2023-01-17T06:22:55.388Z,96992.19
2023-01-17T06:25:56.798Z,96989.16
2023-01-17T06:28:58.219Z,96985.47
2023-01-17T06:32:01.617Z,96981.03
2023-01-17T06:35:03.230Z,96976.09
2023-01-17T06:38:04.653Z,96980.41
2023-01-17T06:41:06.238Z,96972.72
2023-01-17T06:44:09.862Z,96971.28
2023-01-17T06:47:11.301Z,96974.78
2023-01-17T06:50:14.918Z,96981.22
2023-01-17T06:53:16.343Z,96988.41
2023-01-17T06:56:17.772Z,96983.41
2023-01-17T06:59:19.245Z,96978.00
2023-01-17T07:02:21.276Z,96981.34
2023-01-17T07:05:23.152Z,96984.22
2023-01-17T07:08:24.570Z,96972.81
2023-01-17T07:11:27.301Z,96966.56
2023-01-17T07:14:29.079Z,96963.53
2023-01-17T07:17:30.518Z,96966.41
2023-01-17T07:20:32.382Z,96964.94
2023-01-17T07:23:33.786Z,96968.63
2023-01-17T07:26:37.636Z,96967.88
2023-01-17T07:29:39.055Z,96967.06
2023-01-17T07:32:40.569Z,96968.69
2023-01-17T07:35:42.181Z,96972.38
2023-01-17T07:38:46.598Z,96975.00
2023-01-17T07:41:48.102Z,96979.03
2023-01-17T07:44:49.488Z,96982.81
2023-01-17T07:47:51.016Z,96982.16
2023-01-17T07:50:56.891Z,96983.75
2023-01-17T07:53:58.315Z,96974.69
2023-01-17T07:56:59.763Z,96969.81
2023-01-17T08:00:01.361Z,96969.88
2023-01-17T08:03:02.974Z,96975.47
2023-01-17T08:06:04.614Z,96965.06
2023-01-17T08:09:06.047Z,96957.00
2023-01-17T08:12:07.611Z,96955.22
2023-01-17T08:15:09.849Z,96944.38
2023-01-17T08:18:11.275Z,96944.19
2023-01-17T08:21:14.770Z,96935.53
2023-01-17T08:24:16.195Z,96938.44
2023-01-17T08:27:17.643Z,96936.59
2023-01-17T08:30:19.127Z,96941.91
2023-01-17T08:33:20.518Z,96943.63
2023-01-17T08:36:21.983Z,96938.56
2023-01-17T08:39:23.454Z,96949.53
2023-01-17T08:42:24.939Z,96940.00
2023-01-17T08:45:27.829Z,96954.72
2023-01-17T08:48:29.261Z,96957.88
2023-01-17T08:51:32.317Z,96948.91
2023-01-17T08:54:33.713Z,96952.47
2023-01-17T08:57:35.221Z,96946.56
2023-01-17T09:00:37.275Z,96943.56
2023-01-17T09:03:40.832Z,96946.19
2023-01-17T09:06:45.431Z,96940.69
2023-01-17T09:09:47.326Z,96930.22
2023-01-17T09:12:48.809Z,96921.03
2023-01-17T09:15:50.283Z,96933.16
2023-01-17T09:18:56.779Z,96924.56
2023-01-17T09:21:58.647Z,96939.13
2023-01-17T09:25:00.111Z,96935.59
2023-01-17T09:28:01.576Z,96938.03
2023-01-17T09:31:07.232Z,96936.13
2023-01-17T09:34:08.787Z,96932.88
2023-01-17T09:37:10.200Z,96931.25
2023-01-17T09:40:22.922Z,96934.13
2023-01-17T09:43:41.299Z,96934.63
2023-01-17T09:46:46.102Z,96933.78
2023-01-17T09:49:47.705Z,96934.63
2023-01-17T09:52:49.450Z,96929.66
2023-01-17T09:56:00.646Z,96936.31
2023-01-17T09:59:33.235Z,96929.06
2023-01-17T10:02:59.200Z,96937.09
2023-01-17T10:06:19.865Z,96928.69
2023-01-17T10:09:40.652Z,96935.97
2023-01-17T10:13:15.352Z,96927.03
2023-01-17T10:16:24.648Z,96921.91
2023-01-17T10:19:47.765Z,96925.75
2023-01-17T10:23:07.834Z,96924.34
2023-01-17T10:26:17.931Z,96926.31
2023-01-17T10:29:21.290Z,96925.50
2023-01-17T10:32:29.366Z,96908.63
2023-01-17T10:35:34.486Z,96907.44
2023-01-17T10:38:38.597Z,96902.00
2023-01-17T10:41:45.189Z,96896.34
2023-01-17T10:45:02.026Z,96886.97
2023-01-17T10:48:13.023Z,96877.28
2023-01-17T10:51:43.659Z,96879.38
2023-01-17T10:54:49.858Z,96875.88
2023-01-17T10:57:53.391Z,96875.63
2023-01-17T11:01:02.963Z,96874.25
2023-01-17T11:04:16.172Z,96857.09
2023-01-17T11:11:00.140Z,96839.75
2023-01-17T11:14:07.654Z,96838.00
2023-01-17T11:17:11.381Z,96832.56
2023-01-17T11:20:24.075Z,96818.75
2023-01-17T11:23:31.275Z,96815.59
2023-01-17T11:26:36.028Z,96803.19
2023-01-17T11:29:39.448Z,96794.31
2023-01-17T11:32:52.953Z,96789.31
2023-01-17T11:35:54.473Z,96777.44
2023-01-17T11:39:16.866Z,96770.69
2023-01-17T11:42:33.728Z,96755.34
2023-01-17T11:45:35.318Z,96750.56
2023-01-17T11:48:38.528Z,96745.22
2023-01-17T11:51:42.311Z,96740.69
2023-01-17T11:54:46.943Z,96731.59
2023-01-17T11:57:50.512Z,96730.59
2023-01-17T12:01:40.485Z,96725.97
2023-01-17T12:05:01.165Z,96718.91
2023-01-17T12:08:15.018Z,96718.22
2023-01-17T12:11:28.436Z,96715.88
2023-01-17T12:14:42.327Z,96710.34
2023-01-17T12:17:59.027Z,96699.06
2023-01-17T12:21:17.346Z,96694.16
2023-01-17T12:24:29.049Z,96699.56
2023-01-17T12:27:47.783Z,96697.81
2023-01-17T12:31:01.099Z,96683.50
2023-01-17T12:34:14.115Z,96669.09
2023-01-17T12:37:23.691Z,96672.34
2023-01-17T12:40:31.630Z,96661.19
2023-01-17T12:43:53.993Z,96660.66
2023-01-17T12:47:04.621Z,96665.38
2023-01-17T12:50:42.048Z,96664.53
2023-01-17T12:53:58.096Z,96663.03
2023-01-17T12:57:13.967Z,96669.72
2023-01-17T13:00:25.497Z,96665.47
2023-01-17T13:03:41.570Z,96661.47
2023-01-17T13:06:54.739Z,96665.00
2023-01-17T13:10:21.305Z,96652.03
2023-01-17T13:13:30.278Z,96652.88
2023-01-17T13:16:59.192Z,96654.81
2023-01-17T13:20:13.232Z,96638.75
2023-01-17T13:23:35.100Z,96640.44
2023-01-17T13:27:02.612Z,96645.63
2023-01-17T13:30:09.800Z,96652.03
2023-01-17T13:33:40.868Z,96651.22
2023-01-17T13:37:07.498Z,96649.69
2023-01-17T13:40:29.814Z,96647.63
2023-01-17T13:43:37.154Z,96653.28
2023-01-17T13:46:58.772Z,96657.53
2023-01-17T13:50:00.279Z,96652.63
2023-01-17T13:53:39.596Z,96643.66
2023-01-17T13:56:41.104Z,96642.78
2023-01-17T13:59:42.690Z,96647.91
2023-01-17T14:02:45.900Z,96652.63
2023-01-17T14:05:55.299Z,96651.69
2023-01-17T14:09:02.585Z,96661.91
2023-01-17T14:12:32.311Z,96656.72
2023-01-17T14:15:46.637Z,96660.31
2023-01-17T14:18:49.145Z,96660.91
2023-01-17T14:21:50.750Z,96662.28
2023-01-17T14:25:15.224Z,96669.84
2023-01-17T14:28:32.534Z,96660.69
2023-01-17T14:31:34.069Z,96673.22
2023-01-17T14:34:36.475Z,96665.03
2023-01-17T14:37:48.131Z,96663.44
2023-01-17T14:41:00.356Z,96653.84
2023-01-17T14:44:01.770Z,96652.25
2023-01-17T14:47:03.243Z,96652.47
2023-01-17T14:50:30.204Z,96658.59
2023-01-17T14:53:33.230Z,96651.84
2023-01-17T14:56:34.793Z,96661.56
2023-01-17T14:59:36.225Z,96651.63
2023-01-17T15:02:44.560Z,96654.00
2023-01-17T15:05:49.773Z,96655.41
2023-01-17T15:08:54.693Z,96659.41
2023-01-17T15:12:00.693Z,96660.34
2023-01-17T15:15:05.026Z,96663.38
2023-01-17T15:18:27.158Z,96680.97
2023-01-17T15:21:42.486Z,96672.41
2023-01-17T15:24:44.713Z,96666.25
2023-01-17T15:27:49.596Z,96668.97
2023-01-17T15:31:10.243Z,96670.47
2023-01-17T15:34:33.217Z,96676.69
2023-01-17T15:37:37.375Z,96682.22
2023-01-17T15:40:43.504Z,96676.56
2023-01-17T15:43:45.394Z,96682.75
2023-01-17T15:46:47.595Z,96682.81
2023-01-17T15:49:52.828Z,96689.13
2023-01-17T15:53:03.199Z,96704.06
2023-01-17T15:56:21.152Z,96698.66
2023-01-17T15:59:35.160Z,96705.88
2023-01-17T16:02:43.123Z,96700.56
2023-01-17T16:05:46.303Z,96709.63
2023-01-17T16:08:54.368Z,96706.66
2023-01-17T16:11:55.749Z,96709.38
2023-01-17T16:15:11.136Z,96709.38
2023-01-17T16:18:25.760Z,96708.00
2023-01-17T16:21:31.416Z,96705.78
2023-01-17T16:24:33.250Z,96710.00
2023-01-17T16:27:34.745Z,96707.97
2023-01-17T16:30:36.433Z,96711.47
2023-01-17T16:33:39.179Z,96710.13
2023-01-17T16:36:40.628Z,96712.22
2023-01-17T16:39:42.089Z,96719.44
2023-01-17T16:42:44.046Z,96723.28
2023-01-17T16:45:48.156Z,96730.09
2023-01-17T16:48:49.708Z,96732.13
2023-01-17T16:51:51.748Z,96735.38
2023-01-17T16:54:53.926Z,96735.22
2023-01-17T16:57:58.106Z,96742.91
2023-01-17T17:01:00.235Z,96740.59
2023-01-17T17:04:02.026Z,96742.03
2023-01-17T17:07:03.441Z,96740.09
2023-01-17T17:10:05.440Z,96736.78
2023-01-17T17:13:06.990Z,96744.81
2023-01-17T17:16:14.654Z,96748.09
2023-01-17T17:19:16.117Z,96743.72
2023-01-17T17:22:17.513Z,96753.72
2023-01-17T17:25:19.204Z,96754.91
2023-01-17T17:28:20.674Z,96750.69
2023-01-17T17:31:23.049Z,96749.97
2023-01-17T17:34:27.508Z,96757.56
2023-01-17T17:37:29.092Z,96759.25
2023-01-17T17:40:30.499Z,96757.13
2023-01-17T17:43:35.817Z,96753.72
2023-01-17T17:46:37.711Z,96758.38
2023-01-17T17:49:39.843Z,96764.50
2023-01-17T17:52:44.001Z,96763.38
2023-01-17T17:55:45.402Z,96766.38
2023-01-17T17:58:47.738Z,96763.53
2023-01-17T18:01:50.454Z,96759.34
2023-01-17T18:04:52.005Z,96764.50
2023-01-17T18:07:53.727Z,96755.25
2023-01-17T18:11:05.258Z,96760.88
2023-01-17T18:14:11.875Z,96764.59
2023-01-17T18:17:15.788Z,96757.75
2023-01-17T18:20:17.271Z,96767.53
2023-01-17T18:23:18.648Z,96769.44
2023-01-17T18:26:31.273Z,96765.41
2023-01-17T18:29:33.231Z,96763.78
2023-01-17T18:32:34.711Z,96761.56
2023-01-17T18:35:36.145Z,96763.09
2023-01-17T18:38:39.506Z,96768.00
2023-01-17T18:41:41.587Z,96768.97
2023-01-17T18:44:43.169Z,96772.66
2023-01-17T18:47:44.626Z,96774.50
2023-01-17T18:50:55.040Z,96773.50
2023-01-17T18:53:57.916Z,96774.69
2023-01-17T18:56:59.336Z,96770.38
2023-01-17T19:00:02.312Z,96780.63
2023-01-17T19:03:03.853Z,96779.13
2023-01-17T19:06:07.310Z,96783.25
2023-01-17T19:09:10.341Z,96782.81
2023-01-17T19:12:11.755Z,96791.56
2023-01-17T19:15:13.221Z,96794.03
2023-01-17T19:18:14.692Z,96801.34
2023-01-17T19:21:20.085Z,96800.28
2023-01-17T19:24:22.544Z,96801.38
2023-01-17T19:27:23.973Z,96804.16
2023-01-17T19:30:25.390Z,96809.38
2023-01-17T19:33:26.811Z,96814.06
2023-01-17T19:36:33.430Z,96815.69
2023-01-17T19:39:35.299Z,96814.41
2023-01-17T19:42:36.725Z,96806.63
2023-01-17T19:45:38.214Z,96812.66
2023-01-17T19:48:39.906Z,96808.94
2023-01-17T19:51:41.361Z,96804.44
2023-01-17T19:54:42.783Z,96805.44
2023-01-17T19:57:44.240Z,96800.00
2023-01-17T20:00:46.863Z,96800.13
2023-01-17T20:03:49.811Z,96807.31
2023-01-17T20:06:51.202Z,96802.97
2023-01-17T20:09:52.633Z,96800.66
2023-01-17T20:12:54.287Z,96806.56
2023-01-17T20:15:55.711Z,96799.03
2023-01-17T20:18:58.750Z,96802.53
2023-01-17T20:22:00.154Z,96800.44
2023-01-17T20:25:01.932Z,96804.44
2023-01-17T20:28:04.828Z,96795.13
2023-01-17T20:31:09.270Z,96803.16
2023-01-17T20:34:13.591Z,96802.13
2023-01-17T20:37:14.998Z,96798.47
2023-01-17T20:40:17.487Z,96807.75
2023-01-17T20:43:18.967Z,96808.13
2023-01-17T20:46:23.029Z,96805.69
2023-01-17T20:49:24.550Z,96806.84
2023-01-17T20:52:25.951Z,96805.81
2023-01-17T20:55:27.347Z,96796.28
2023-01-17T20:58:30.533Z,96809.81
2023-01-17T21:01:32.191Z,96807.16
2023-01-17T21:04:33.773Z,96805.22
2023-01-17T21:07:35.190Z,96808.44
2023-01-17T21:10:38.141Z,96816.59
2023-01-17T21:13:40.182Z,96815.66
2023-01-17T21:16:41.842Z,96808.38
2023-01-17T21:19:43.374Z,96814.13
2023-01-17T21:22:44.784Z,96813.00
2023-01-17T21:25:49.238Z,96816.44
2023-01-17T21:28:50.718Z,96814.78
2023-01-17T21:31:52.407Z,96821.34
2023-01-17T21:34:53.811Z,96816.66
2023-01-17T21:37:55.527Z,96813.00
2023-01-17T21:40:57.336Z,96819.22
2023-01-17T21:44:08.528Z,96815.56
2023-01-17T21:47:09.928Z,96816.97
2023-01-17T21:50:12.997Z,96832.88
2023-01-17T21:53:18.749Z,96829.66
2023-01-17T21:56:38.807Z,96831.34
2023-01-17T21:59:40.226Z,96837.03
2023-01-17T22:02:46.290Z,96831.25
2023-01-17T22:05:47.768Z,96832.16
2023-01-17T22:08:49.288Z,96839.44
2023-01-17T22:11:50.713Z,96841.00
2023-01-17T22:14:52.588Z,96845.50
2023-01-17T22:17:54.188Z,96845.34
2023-01-17T22:20:56.826Z,96840.63
2023-01-17T22:23:59.841Z,96842.41
2023-01-17T22:27:01.259Z,96842.72
2023-01-17T22:30:02.734Z,96850.59
2023-01-17T22:33:04.155Z,96853.38
2023-01-17T22:36:06.796Z,96858.16
2023-01-17T22:39:09.569Z,96856.28
2023-01-17T22:42:13.241Z,96853.16
2023-01-17T22:45:17.278Z,96862.53
2023-01-17T22:48:18.671Z,96864.13
2023-01-17T22:51:21.764Z,96859.44
2023-01-17T22:54:23.545Z,96868.16
2023-01-17T22:57:25.077Z,96864.47
2023-01-17T23:00:26.520Z,96866.16
2023-01-17T23:03:27.910Z,96870.78
2023-01-17T23:06:31.887Z,96864.94
2023-01-17T23:09:33.571Z,96869.38
2023-01-17T23:12:35.315Z,96872.78
2023-01-17T23:15:58.491Z,96871.38
2023-01-17T23:19:18.638Z,96869.44
2023-01-17T23:22:22.300Z,96875.06
2023-01-17T23:25:23.772Z,96872.81
2023-01-17T23:28:25.171Z,96872.03
2023-01-17T23:31:26.602Z,96870.38
2023-01-17T23:34:28.157Z,96868.63
2023-01-17T23:37:50.423Z,96866.06
2023-01-17T23:41:11.755Z,96864.78
2023-01-17T23:44:13.808Z,96866.22
2023-01-17T23:47:15.290Z,96869.88
2023-01-17T23:50:17.000Z,96879.88
2023-01-17T23:53:23.303Z,96872.94
2023-01-17T23:56:24.857Z,96868.94
2023-01-17T23:59:26.274Z,96877.16
